Time;durP1;ratioP1;P1;durP2;ratioP2;P2;SDS_P1;SDS_P2;PMS_P1;PMS_P2;Temp;Humidity;BMP_temperature;BMP_pressure;BME280_temperature;BME280_humidity;BME280_pressure;Samples;Min_cycle;Max_cycle;Signal;HPM_P1;HPM_P2
2023/05/09 00:00:46;;;;;;;;;8.25;7.00;21.70;41.90;;;;;;111532;1238;45339;-64
2023/05/09 00:03:14;;;;;;;;;9.00;7.25;21.70;41.90;;;;;;111283;1244;55420;-64
2023/05/09 00:05:41;;;;;;;;;8.75;6.75;21.60;41.80;;;;;;111400;1238;54214;-65
2023/05/09 00:08:08;;;;;;;;;10.00;8.25;21.60;41.80;;;;;;111450;1241;48992;-64
2023/05/09 00:10:35;;;;;;;;;8.00;7.00;21.60;41.80;;;;;;111537;1237;50207;-64
2023/05/09 00:13:02;;;;;;;;;9.00;7.50;21.60;41.80;;;;;;111578;1238;45330;-63
2023/05/09 00:15:29;;;;;;;;;9.00;7.00;21.60;41.80;;;;;;111791;1241;56594;-63
2023/05/09 00:17:56;;;;;;;;;9.00;8.00;21.60;41.80;;;;;;111535;1241;54608;-63
2023/05/09 00:20:24;;;;;;;;;10.00;8.75;21.60;41.70;;;;;;111544;1241;49448;-64
2023/05/09 00:22:51;;;;;;;;;8.67;7.67;21.60;42.20;;;;;;111369;1243;49763;-63
2023/05/09 00:25:18;;;;;;;;;10.00;8.50;21.60;41.70;;;;;;111541;1239;46116;-63
2023/05/09 00:27:44;;;;;;;;;9.00;8.00;21.60;41.70;;;;;;111575;1242;56313;-63
2023/05/09 00:30:11;;;;;;;;;8.00;7.00;21.60;41.70;;;;;;111627;1241;54837;-62
2023/05/09 00:32:40;;;;;;;;;10.00;8.00;21.60;41.70;;;;;;111584;1238;49287;-63
2023/05/09 00:35:08;;;;;;;;;7.75;6.75;21.50;41.70;;;;;;111496;1238;50320;-61
2023/05/09 00:37:36;;;;;;;;;11.50;8.75;21.50;41.70;;;;;;111373;1240;46559;-62
2023/05/09 00:40:05;;;;;;;;;8.75;6.75;21.50;41.70;;;;;;111507;1237;57111;-61
2023/05/09 00:42:32;;;;;;;;;8.00;6.75;21.50;41.60;;;;;;111506;1243;53177;-63
2023/05/09 00:44:59;;;;;;;;;9.00;7.00;21.50;41.60;;;;;;111324;1240;49459;-61
2023/05/09 00:47:27;;;;;;;;;9.00;7.50;21.50;41.60;;;;;;111567;1242;50388;-64
2023/05/09 00:49:58;;;;;;;;;8.00;7.00;21.50;41.60;;;;;;111340;1240;45320;-63
2023/05/09 00:52:26;;;;;;;;;8.75;7.75;21.50;41.50;;;;;;111584;1238;55841;-63
2023/05/09 00:54:54;;;;;;;;;8.00;6.00;21.50;41.60;;;;;;111270;1239;53486;-64
2023/05/09 00:57:22;;;;;;;;;8.75;7.75;21.40;41.50;;;;;;111594;1238;48896;-63
2023/05/09 00:59:49;;;;;;;;;9.67;8.00;21.50;41.60;;;;;;111562;1241;50114;-64
2023/05/09 01:02:17;;;;;;;;;9.00;8.00;21.50;41.50;;;;;;111538;1241;45404;-64
2023/05/09 01:04:45;;;;;;;;;8.00;7.00;21.50;41.50;;;;;;111405;1238;55597;-63
2023/05/09 01:07:26;;;;;;;;;8.75;7.75;21.50;41.60;;;;;;111210;1243;53664;-64
2023/05/09 01:10:22;;;;;;;;;9.33;8.00;21.50;41.50;;;;;;111443;1241;48719;-63
2023/05/09 01:12:58;;;;;;;;;8.00;7.00;21.50;41.80;;;;;;111381;1243;49049;-63
2023/05/09 01:15:47;;;;;;;;;9.00;8.00;21.50;41.70;;;;;;111451;1244;45647;-64
2023/05/09 01:18:26;;;;;;;;;8.00;7.00;21.50;41.40;;;;;;111527;1237;56616;-64
2023/05/09 01:21:02;;;;;;;;;9.00;8.00;21.50;41.40;;;;;;111525;1242;54671;-63
2023/05/09 01:23:56;;;;;;;;;8.33;7.00;21.50;41.40;;;;;;111426;1243;48678;-64
2023/05/09 01:26:46;;;;;;;;;9.25;7.75;21.40;41.40;;;;;;111402;1241;49409;-65
2023/05/09 01:29:25;;;;;;;;;7.25;6.00;21.40;41.40;;;;;;111556;1243;45463;-63
2023/05/09 01:31:54;;;;;;;;;8.67;7.67;21.40;41.40;;;;;;111613;1242;56279;-65
2023/05/09 01:34:25;;;;;;;;;9.00;7.25;21.40;41.40;;;;;;111302;1238;53742;-66
2023/05/09 01:36:55;;;;;;;;;8.50;7.00;21.40;41.40;;;;;;111294;1239;50092;-66
2023/05/09 01:39:23;;;;;;;;;9.00;8.00;21.40;41.40;;;;;;111528;1239;49482;-65
2023/05/09 01:41:52;;;;;;;;;9.25;8.00;21.40;41.40;;;;;;111285;1242;45333;-65
2023/05/09 01:44:21;;;;;;;;;7.00;6.00;21.40;41.40;;;;;;111660;1241;56515;-65
2023/05/09 01:46:49;;;;;;;;;7.67;7.00;21.30;41.30;;;;;;111719;1241;54038;-65
2023/05/09 01:49:17;;;;;;;;;9.00;8.00;21.40;41.40;;;;;;111660;1238;50001;-65
2023/05/09 01:51:44;;;;;;;;;8.33;6.67;21.30;41.30;;;;;;111677;1238;48359;-67
2023/05/09 01:54:11;;;;;;;;;9.00;8.00;21.30;41.30;;;;;;111600;1243;46425;-64
2023/05/09 01:56:39;;;;;;;;;9.00;7.75;21.30;41.30;;;;;;111544;1238;56087;-66
2023/05/09 01:59:07;;;;;;;;;9.00;8.00;21.30;41.30;;;;;;111283;1240;54315;-67
2023/05/09 02:01:34;;;;;;;;;9.00;7.00;21.30;41.30;;;;;;111381;1238;48729;-67
2023/05/09 02:04:02;;;;;;;;;8.50;7.25;21.30;41.50;;;;;;111454;1242;49466;-67
2023/05/09 02:06:30;;;;;;;;;9.00;8.00;21.30;41.30;;;;;;111446;1241;45791;-66
2023/05/09 02:08:58;;;;;;;;;8.00;7.00;21.30;41.30;;;;;;111427;1239;55796;-67
2023/05/09 02:11:25;;;;;;;;;7.75;6.75;21.30;41.30;;;;;;111664;1237;54729;-67
2023/05/09 02:13:52;;;;;;;;;8.25;7.25;21.30;41.30;;;;;;111528;1237;49549;-65
2023/05/09 02:16:19;;;;;;;;;9.00;8.00;21.30;41.50;;;;;;111507;1241;49802;-65
2023/05/09 02:18:47;;;;;;;;;8.00;6.25;21.20;41.20;;;;;;111633;1241;45420;-65
2023/05/09 02:21:14;;;;;;;;;9.00;8.00;21.20;41.20;;;;;;111695;1237;56759;-68
2023/05/09 02:23:41;;;;;;;;;8.50;6.75;21.20;41.30;;;;;;111506;1238;54932;-65
2023/05/09 02:26:08;;;;;;;;;9.00;7.50;21.20;41.80;;;;;;111486;1237;49886;-67
2023/05/09 02:28:35;;;;;;;;;8.75;7.00;21.20;41.30;;;;;;111498;1241;48875;-66
2023/05/09 02:31:05;;;;;;;;;9.00;7.00;21.20;41.20;;;;;;111531;1243;45799;-67
2023/05/09 02:33:35;;;;;;;;;10.25;9.00;21.20;41.40;;;;;;111981;1239;55171;-66
2023/05/09 02:36:02;;;;;;;;;8.00;6.75;21.20;41.80;;;;;;111481;1241;53201;-67
2023/05/09 02:38:29;;;;;;;;;9.00;7.00;21.20;41.40;;;;;;111529;1243;49207;-66
2023/05/09 02:40:56;;;;;;;;;8.25;7.00;21.20;41.20;;;;;;111521;1235;48551;-68
2023/05/09 02:43:23;;;;;;;;;9.00;7.00;21.20;41.30;;;;;;111857;1237;46739;-65
2023/05/09 02:45:50;;;;;;;;;8.00;7.00;21.20;41.20;;;;;;111647;1235;54843;-66
2023/05/09 02:48:18;;;;;;;;;9.50;8.00;21.20;41.40;;;;;;111608;1235;55053;-66
2023/05/09 02:50:45;;;;;;;;;9.00;7.00;21.20;41.10;;;;;;111651;1236;48831;-65
2023/05/09 02:53:12;;;;;;;;;9.00;7.50;21.20;41.10;;;;;;111679;1240;49466;-64
2023/05/09 02:55:39;;;;;;;;;10.00;8.00;21.10;41.20;;;;;;111831;1235;45843;-65
2023/05/09 02:58:07;;;;;;;;;9.00;8.00;21.10;41.20;;;;;;111680;1241;56517;-67
2023/05/09 03:00:34;;;;;;;;;8.00;7.00;21.10;41.20;;;;;;111745;1244;54170;-67
2023/05/09 03:03:01;;;;;;;;;10.50;7.00;21.10;41.40;;;;;;111491;1238;50358;-66
2023/05/09 03:05:28;;;;;;;;;9.00;8.00;21.10;41.20;;;;;;112004;1235;50482;-65
2023/05/09 03:07:55;;;;;;;;;7.75;6.75;21.10;41.20;;;;;;111536;1238;45253;-66
2023/05/09 03:10:22;;;;;;;;;9.75;8.00;21.10;41.10;;;;;;111661;1235;55967;-65
2023/05/09 03:12:49;;;;;;;;;9.00;7.75;21.10;41.20;;;;;;111668;1240;53572;-65
2023/05/09 03:15:16;;;;;;;;;7.75;6.75;21.10;41.30;;;;;;111686;1237;49346;-66
2023/05/09 03:17:43;;;;;;;;;9.25;8.00;21.10;41.30;;;;;;111659;1237;48735;-65
2023/05/09 03:20:10;;;;;;;;;10.00;8.00;21.10;41.20;;;;;;111653;1237;45986;-65
2023/05/09 03:22:37;;;;;;;;;10.67;8.00;21.10;41.20;;;;;;111701;1239;56143;-65
2023/05/09 03:25:05;;;;;;;;;9.00;8.00;21.00;41.10;;;;;;111703;1239;53923;-66
2023/05/09 03:27:32;;;;;;;;;9.00;7.00;21.00;41.10;;;;;;111737;1238;49725;-66
2023/05/09 03:29:59;;;;;;;;;9.00;7.00;21.00;41.10;;;;;;111564;1236;49084;-65
2023/05/09 03:32:26;;;;;;;;;9.25;8.00;21.00;41.30;;;;;;111708;1237;46008;-66
2023/05/09 03:34:53;;;;;;;;;8.00;6.75;21.00;41.30;;;;;;111709;1235;56357;-67
2023/05/09 03:37:21;;;;;;;;;8.00;6.75;21.00;41.20;;;;;;111703;1235;54316;-64
2023/05/09 03:39:48;;;;;;;;;9.00;7.00;21.00;41.30;;;;;;109329;1244;3010965;-66
2023/05/09 03:42:15;;;;;;;;;9.00;7.00;21.00;41.10;;;;;;111749;1237;36590;-64
2023/05/09 03:44:42;;;;;;;;;9.00;7.00;21.00;41.20;;;;;;111681;1235;46811;-67
2023/05/09 03:47:09;;;;;;;;;10.00;8.00;21.00;41.20;;;;;;111662;1240;56214;-67
2023/05/09 03:49:36;;;;;;;;;7.75;6.75;21.00;41.10;;;;;;111744;1237;54336;-68
2023/05/09 03:52:03;;;;;;;;;9.00;7.00;21.00;41.20;;;;;;111736;1241;49853;-68
2023/05/09 03:54:30;;;;;;;;;9.00;7.50;21.00;41.10;;;;;;111685;1235;49512;-69
2023/05/09 03:56:57;;;;;;;;;13.25;9.00;21.00;41.20;;;;;;111795;1237;45615;-68
2023/05/09 03:59:24;;;;;;;;;9.00;8.00;21.00;41.10;;;;;;111780;1239;56794;-67
2023/05/09 04:01:51;;;;;;;;;9.00;7.00;21.00;41.10;;;;;;111781;1238;53675;-67
2023/05/09 04:04:18;;;;;;;;;9.00;8.00;21.00;41.30;;;;;;112022;1240;49427;-64
2023/05/09 04:06:45;;;;;;;;;8.75;6.75;21.00;41.10;;;;;;111595;1242;48751;-69
2023/05/09 04:09:12;;;;;;;;;9.75;8.00;21.00;41.10;;;;;;111710;1235;46180;-68
2023/05/09 04:11:39;;;;;;;;;11.00;8.00;21.00;41.00;;;;;;111780;1240;55822;-69
2023/05/09 04:14:06;;;;;;;;;9.00;7.00;21.00;41.00;;;;;;112096;1235;53684;-70
2023/05/09 04:16:33;;;;;;;;;9.75;8.25;21.00;41.30;;;;;;111808;1235;49746;-72
2023/05/09 04:19:00;;;;;;;;;8.00;7.00;21.00;40.60;;;;;;111779;1235;48899;-67
2023/05/09 04:21:27;;;;;;;;;8.25;6.75;21.00;41.10;;;;;;111782;1235;46217;-69
2023/05/09 04:23:54;;;;;;;;;9.00;8.00;21.00;41.00;;;;;;111457;1240;55645;-67
2023/05/09 04:26:21;;;;;;;;;9.00;8.00;21.00;41.00;;;;;;111560;1235;54213;-67
2023/05/09 04:28:48;;;;;;;;;11.75;8.25;21.00;41.00;;;;;;111690;1235;48859;-62
2023/05/09 04:31:16;;;;;;;;;10.00;8.75;20.90;43.10;;;;;;111668;1238;48936;-64
2023/05/09 04:33:43;;;;;;;;;10.67;9.00;20.90;44.20;;;;;;112052;1235;45378;-67
2023/05/09 04:36:10;;;;;;;;;11.00;8.67;20.90;44.40;;;;;;111597;1236;55607;-65
2023/05/09 04:38:37;;;;;;;;;12.00;9.75;21.00;45.50;;;;;;111760;1235;53642;-63
2023/05/09 04:41:03;;;;;;;;;10.00;8.00;21.00;45.80;;;;;;111700;1235;50336;-64
2023/05/09 04:43:31;;;;;;;;;10.25;9.00;21.10;45.90;;;;;;111993;1240;49028;-63
2023/05/09 04:45:58;;;;;;;;;11.00;9.00;21.20;45.90;;;;;;111590;1237;45423;-64
2023/05/09 04:48:25;;;;;;;;;12.75;11.00;21.30;47.60;;;;;;111681;1236;55344;-69
2023/05/09 04:50:52;;;;;;;;;16.00;13.00;21.40;46.80;;;;;;111716;1241;53626;-67
2023/05/09 04:53:19;;;;;;;;;24.00;16.00;21.50;46.40;;;;;;111739;1238;49026;-66
2023/05/09 04:55:46;;;;;;;;;24.67;17.33;21.50;46.00;;;;;;111981;1236;49885;-64
2023/05/09 04:58:13;;;;;;;;;23.75;17.00;21.60;46.10;;;;;;111664;1237;46514;-68
2023/05/09 05:00:39;;;;;;;;;21.75;15.75;21.60;46.40;;;;;;111878;1240;55981;-61
2023/05/09 05:03:06;;;;;;;;;30.50;21.75;21.70;46.70;;;;;;111770;1241;54895;-72
2023/05/09 05:05:34;;;;;;;;;22.75;17.75;21.70;46.70;;;;;;111970;1237;48923;-72
2023/05/09 05:08:00;;;;;;;;;24.25;18.75;21.70;46.80;;;;;;111749;1239;49441;-67
2023/05/09 05:10:29;;;;;;;;;23.25;16.75;21.80;47.10;;;;;;111718;1235;45404;-63
2023/05/09 05:12:56;;;;;;;;;33.75;17.00;21.90;46.80;;;;;;111743;1235;55784;-65
2023/05/09 05:15:23;;;;;;;;;22.00;14.00;21.90;45.60;;;;;;112001;1236;53558;-66
2023/05/09 05:17:49;;;;;;;;;24.25;16.25;21.90;46.30;;;;;;111765;1235;49211;-69
2023/05/09 05:20:17;;;;;;;;;22.25;17.25;22.00;45.90;;;;;;111737;1241;49961;-68
2023/05/09 05:22:44;;;;;;;;;27.50;18.25;22.00;46.20;;;;;;111653;1239;45873;-70
2023/05/09 05:25:11;;;;;;;;;25.25;17.75;22.10;46.20;;;;;;111990;1235;55539;-68
2023/05/09 05:27:38;;;;;;;;;21.50;15.50;22.10;46.50;;;;;;111729;1240;53437;-66
2023/05/09 05:30:06;;;;;;;;;25.75;17.50;22.20;46.40;;;;;;111646;1240;49656;-68
2023/05/09 05:32:33;;;;;;;;;24.25;19.75;22.20;46.50;;;;;;111735;1239;49718;-69
2023/05/09 05:35:02;;;;;;;;;20.75;16.00;22.20;46.50;;;;;;112058;1237;45563;-70
2023/05/09 05:37:29;;;;;;;;;27.50;16.00;22.30;46.50;;;;;;111766;1235;56289;-74
2023/05/09 05:39:56;;;;;;;;;34.00;18.50;22.40;46.10;;;;;;111790;1235;54274;-76
2023/05/09 05:42:23;;;;;;;;;19.75;17.00;22.40;46.00;;;;;;111874;1235;50714;-78
2023/05/09 05:44:50;;;;;;;;;17.75;15.00;22.50;45.20;;;;;;112153;1235;48715;-77
2023/05/09 05:47:17;;;;;;;;;25.00;17.00;22.50;44.80;;;;;;111861;1235;46244;-72
2023/05/09 05:49:44;;;;;;;;;24.00;14.00;22.60;44.00;;;;;;111819;1235;55649;-70
2023/05/09 05:52:10;;;;;;;;;26.00;18.33;22.60;44.30;;;;;;111791;1240;53902;-70
2023/05/09 05:54:37;;;;;;;;;19.00;16.00;22.70;44.20;;;;;;112108;1241;49457;-69
2023/05/09 05:57:04;;;;;;;;;23.00;16.25;22.70;44.10;;;;;;111837;1241;49017;-69
2023/05/09 05:59:31;;;;;;;;;18.75;13.00;22.70;43.70;;;;;;111782;1242;45972;-69
2023/05/09 06:01:59;;;;;;;;;15.25;11.75;22.80;43.60;;;;;;111755;1238;55049;-69
2023/05/09 06:04:27;;;;;;;;;20.25;13.50;22.80;43.10;;;;;;112014;1237;53830;-71
2023/05/09 06:06:54;;;;;;;;;15.00;12.00;22.80;43.10;;;;;;111779;1235;49369;-68
2023/05/09 06:09:21;;;;;;;;;14.67;11.67;22.80;42.60;;;;;;111766;1241;49295;-71
2023/05/09 06:11:48;;;;;;;;;14.00;10.67;22.80;42.30;;;;;;111780;1238;45197;-69
2023/05/09 06:14:15;;;;;;;;;15.00;13.25;22.80;42.10;;;;;;112119;1240;55900;-69
2023/05/09 06:16:42;;;;;;;;;15.75;11.75;22.80;42.30;;;;;;111815;1235;54276;-69
2023/05/09 06:19:09;;;;;;;;;14.25;12.50;22.90;41.90;;;;;;111663;1241;49088;-69
2023/05/09 06:21:36;;;;;;;;;16.75;15.00;22.90;41.90;;;;;;111780;1240;49687;-71
2023/05/09 06:24:03;;;;;;;;;18.75;15.25;22.90;42.00;;;;;;112058;1235;46133;-70
2023/05/09 06:26:30;;;;;;;;;14.50;12.75;22.80;42.00;;;;;;111811;1240;55533;-72
2023/05/09 06:28:59;;;;;;;;;14.00;9.50;22.80;41.90;;;;;;111809;1240;54742;-69
2023/05/09 06:31:26;;;;;;;;;9.50;8.00;22.80;41.50;;;;;;111761;1240;49489;-65
2023/05/09 06:33:53;;;;;;;;;12.00;11.00;22.80;40.80;;;;;;112045;1235;49115;-67
2023/05/09 06:36:20;;;;;;;;;14.00;10.75;22.70;41.00;;;;;;111923;1237;45581;-65
2023/05/09 06:38:47;;;;;;;;;13.25;9.75;22.70;40.70;;;;;;111883;1238;56211;-67
2023/05/09 06:41:14;;;;;;;;;10.00;8.25;22.70;39.60;;;;;;111812;1237;53989;-67
2023/05/09 06:43:41;;;;;;;;;12.50;10.00;22.70;39.40;;;;;;112038;1240;49807;-68
2023/05/09 06:46:07;;;;;;;;;10.75;8.75;22.60;39.30;;;;;;111859;1235;48759;-71
2023/05/09 06:48:35;;;;;;;;;11.67;10.00;22.70;39.20;;;;;;111931;1235;45852;-66
2023/05/09 06:51:01;;;;;;;;;11.75;10.00;22.70;38.90;;;;;;111818;1235;55931;-65
2023/05/09 06:53:28;;;;;;;;;10.75;9.75;22.70;39.40;;;;;;112039;1235;54247;-66
2023/05/09 06:55:55;;;;;;;;;13.33;9.00;22.70;39.20;;;;;;111846;1235;49967;-68
2023/05/09 06:58:22;;;;;;;;;11.75;10.75;22.80;40.00;;;;;;111776;1235;49240;-69
2023/05/09 07:00:50;;;;;;;;;11.00;8.75;22.80;40.70;;;;;;111799;1240;46396;-64
2023/05/09 07:03:17;;;;;;;;;9.00;8.00;22.90;40.80;;;;;;111870;1239;55316;-69
2023/05/09 07:05:44;;;;;;;;;11.75;10.75;22.90;41.20;;;;;;111978;1235;53799;-71
2023/05/09 07:08:11;;;;;;;;;10.00;9.00;22.90;41.50;;;;;;111804;1240;49166;-71
2023/05/09 07:10:38;;;;;;;;;11.00;8.25;23.00;42.10;;;;;;111784;1241;50340;-65
2023/05/09 07:13:05;;;;;;;;;11.25;10.00;23.10;42.10;;;;;;111782;1244;45980;-65
2023/05/09 07:15:32;;;;;;;;;12.00;10.00;23.20;42.40;;;;;;112094;1235;55878;-64
2023/05/09 07:17:58;;;;;;;;;10.75;9.25;23.20;42.10;;;;;;111782;1240;54084;-64
2023/05/09 07:20:25;;;;;;;;;14.00;10.00;23.30;41.50;;;;;;111784;1238;49739;-63
2023/05/09 07:22:52;;;;;;;;;11.75;10.75;23.30;41.40;;;;;;111824;1238;48884;-66
2023/05/09 07:25:19;;;;;;;;;11.75;8.75;23.30;41.10;;;;;;112138;1241;45948;-64
2023/05/09 07:27:46;;;;;;;;;10.50;9.50;23.30;41.10;;;;;;111802;1238;55241;-64
2023/05/09 07:30:13;;;;;;;;;9.75;8.75;23.30;41.50;;;;;;111810;1235;54260;-65
2023/05/09 07:32:40;;;;;;;;;10.50;9.00;23.30;41.90;;;;;;111832;1235;49722;-62
2023/05/09 07:35:07;;;;;;;;;10.00;9.00;23.30;41.80;;;;;;112046;1238;49423;-65
2023/05/09 07:37:34;;;;;;;;;11.50;10.50;23.30;41.50;;;;;;111788;1237;45560;-63
2023/05/09 07:40:02;;;;;;;;;10.00;9.00;23.40;41.70;;;;;;111768;1235;55835;-65
2023/05/09 07:42:31;;;;;;;;;10.00;8.67;23.40;42.10;;;;;;111870;1237;53952;-65
2023/05/09 07:44:59;;;;;;;;;11.75;8.75;23.40;41.90;;;;;;112082;1235;49675;-62
2023/05/09 07:47:26;;;;;;;;;13.00;12.00;23.50;41.40;;;;;;111556;1237;49184;-64
2023/05/09 07:49:53;;;;;;;;;12.25;11.00;23.50;42.00;;;;;;111706;1240;46365;-69
2023/05/09 07:52:20;;;;;;;;;12.25;11.25;23.60;41.50;;;;;;111734;1235;55907;-67
2023/05/09 07:54:47;;;;;;;;;21.67;15.67;23.70;41.20;;;;;;112054;1242;53336;-67
2023/05/09 07:57:15;;;;;;;;;16.67;14.00;23.70;40.80;;;;;;111760;1240;50214;-64
2023/05/09 07:59:42;;;;;;;;;19.00;14.50;23.80;40.50;;;;;;111661;1235;49395;-64
2023/05/09 08:02:09;;;;;;;;;14.25;13.25;23.80;40.70;;;;;;111711;1240;46325;-65
2023/05/09 08:04:37;;;;;;;;;15.50;14.00;23.80;40.60;;;;;;111522;1241;56357;-69
2023/05/09 08:07:04;;;;;;;;;18.75;15.50;23.90;40.70;;;;;;111582;1241;54347;-65
2023/05/09 08:09:31;;;;;;;;;16.00;15.00;23.90;40.60;;;;;;111809;1240;50033;-75
2023/05/09 08:11:58;;;;;;;;;17.25;14.25;24.00;40.70;;;;;;111603;1237;49719;-70
2023/05/09 08:14:25;;;;;;;;;17.75;16.75;24.00;40.70;;;;;;112091;1238;45567;-69
2023/05/09 08:16:52;;;;;;;;;14.75;13.75;24.10;40.70;;;;;;111692;1238;56015;-66
2023/05/09 08:19:22;;;;;;;;;18.00;13.00;24.20;40.90;;;;;;111698;1242;54871;-67
2023/05/09 08:21:49;;;;;;;;;14.67;12.67;24.20;40.70;;;;;;111668;1235;49441;-67
2023/05/09 08:24:16;;;;;;;;;17.00;14.00;24.20;40.70;;;;;;111683;1240;49320;-67
2023/05/09 08:26:43;;;;;;;;;21.00;16.00;24.20;40.60;;;;;;111663;1235;45696;-68
2023/05/09 08:29:11;;;;;;;;;17.00;14.00;24.20;40.60;;;;;;111666;1236;56070;-70
2023/05/09 08:31:38;;;;;;;;;16.50;12.75;24.30;40.60;;;;;;111774;1240;54171;-69
2023/05/09 08:34:05;;;;;;;;;14.33;12.67;24.30;41.00;;;;;;112036;1235;49240;-63
2023/05/09 08:36:32;;;;;;;;;17.00;15.00;24.40;40.60;;;;;;111706;1239;50255;-66
2023/05/09 08:39:01;;;;;;;;;15.25;12.75;24.40;40.50;;;;;;111641;1240;46651;-65
2023/05/09 08:41:28;;;;;;;;;18.00;15.00;24.40;40.50;;;;;;111723;1237;56026;-65
2023/05/09 08:43:55;;;;;;;;;18.00;15.00;24.50;40.60;;;;;;111679;1238;54167;-64
2023/05/09 08:46:33;;;;;;;;;14.25;11.75;24.50;40.50;;;;;;111653;1240;50078;-62
2023/05/09 08:49:00;;;;;;;;;20.75;15.50;24.60;40.50;;;;;;111715;1239;49656;-61
2023/05/09 08:51:28;;;;;;;;;27.00;18.75;24.60;40.50;;;;;;111655;1237;45346;-60
2023/05/09 08:53:55;;;;;;;;;15.25;12.50;24.60;40.50;;;;;;111720;1235;55889;-61
2023/05/09 08:56:23;;;;;;;;;14.00;11.75;24.70;40.70;;;;;;111590;1238;54028;-61
2023/05/09 08:58:50;;;;;;;;;16.00;14.00;24.70;40.20;;;;;;110665;1239;1322812;-61
2023/05/09 09:01:17;;;;;;;;;17.50;15.00;24.80;40.70;;;;;;111692;1240;49908;-61
2023/05/09 09:03:48;;;;;;;;;20.33;15.00;24.80;40.40;;;;;;111721;1235;46602;-62
2023/05/09 09:06:16;;;;;;;;;17.00;14.50;24.80;40.50;;;;;;111695;1237;55970;-62
2023/05/09 09:08:45;;;;;;;;;14.75;12.75;24.80;40.40;;;;;;111684;1235;53409;-61
2023/05/09 09:11:16;;;;;;;;;15.25;14.00;24.90;40.40;;;;;;111505;1241;49147;-61
2023/05/09 09:13:43;;;;;;;;;14.67;12.00;24.90;40.40;;;;;;111689;1241;49423;-60
2023/05/09 09:16:18;;;;;;;;;14.25;13.25;24.90;40.30;;;;;;111659;1240;46135;-62
2023/05/09 09:18:46;;;;;;;;;16.50;15.75;24.90;40.20;;;;;;111499;1239;55498;-61
2023/05/09 09:21:18;;;;;;;;;13.33;11.00;24.90;40.30;;;;;;111647;1240;54102;-62
2023/05/09 09:23:49;;;;;;;;;17.67;14.00;25.00;40.50;;;;;;111684;1240;49950;-62
2023/05/09 09:26:16;;;;;;;;;14.50;13.00;25.00;40.40;;;;;;111715;1241;49456;-61
2023/05/09 09:28:43;;;;;;;;;17.00;12.75;25.00;40.30;;;;;;111720;1241;45752;-61
2023/05/09 09:31:23;;;;;;;;;16.75;12.75;25.10;40.30;;;;;;111690;1235;56665;-60
2023/05/09 09:33:50;;;;;;;;;15.50;13.00;25.10;40.30;;;;;;111723;1244;55196;-60
2023/05/09 09:36:27;;;;;;;;;19.25;15.00;25.10;40.30;;;;;;111678;1235;49675;-61
2023/05/09 09:38:59;;;;;;;;;15.00;12.50;25.20;39.80;;;;;;111717;1235;49759;-62
2023/05/09 09:41:34;;;;;;;;;18.25;14.25;25.20;40.20;;;;;;111766;1240;45339;-60
2023/05/09 09:44:08;;;;;;;;;12.25;11.25;25.20;40.20;;;;;;111710;1235;56723;-61
2023/05/09 09:46:51;;;;;;;;;18.33;14.67;25.20;40.20;;;;;;111741;1241;54598;-62
2023/05/09 09:49:23;;;;;;;;;14.50;13.50;25.20;40.10;;;;;;111685;1240;49822;-62
2023/05/09 09:51:57;;;;;;;;;15.25;13.00;25.30;39.70;;;;;;111719;1235;49902;-62
2023/05/09 09:54:28;;;;;;;;;16.00;14.00;25.30;41.70;;;;;;111711;1238;46386;-63
2023/05/09 09:56:55;;;;;;;;;19.00;13.33;25.30;42.70;;;;;;111685;1240;55130;-61
2023/05/09 09:59:24;;;;;;;;;17.25;15.00;25.30;43.50;;;;;;111706;1240;53980;-61
2023/05/09 10:02:02;;;;;;;;;22.00;19.00;25.30;46.10;;;;;;111573;1243;49118;-60
2023/05/09 10:04:33;;;;;;;;;19.33;17.00;25.30;48.10;;;;;;111720;1241;48851;-62
2023/05/09 10:07:03;;;;;;;;;35.25;31.25;25.40;47.90;;;;;;111671;1240;46044;-61
2023/05/09 10:09:32;;;;;;;;;44.50;35.25;25.40;51.10;;;;;;111703;1239;55845;-62
2023/05/09 10:12:03;;;;;;;;;39.33;34.00;25.50;52.20;;;;;;111681;1240;53371;-62
2023/05/09 10:14:32;;;;;;;;;40.50;33.00;25.50;52.10;;;;;;111741;1235;49536;-62
2023/05/09 10:17:01;;;;;;;;;40.33;34.00;25.50;52.90;;;;;;111691;1235;48987;-62
2023/05/09 10:19:29;;;;;;;;;28.00;25.33;25.60;52.80;;;;;;111507;1237;45487;-62
2023/05/09 10:21:58;;;;;;;;;28.50;26.00;25.70;51.20;;;;;;111705;1236;55885;-63
2023/05/09 10:24:43;;;;;;;;;28.50;22.25;25.70;49.90;;;;;;111652;1238;54018;-60
2023/05/09 10:27:10;;;;;;;;;24.00;21.00;25.80;48.90;;;;;;111579;1240;49735;-62
2023/05/09 10:29:45;;;;;;;;;20.00;17.75;25.80;48.10;;;;;;111677;1235;49604;-61
2023/05/09 10:32:19;;;;;;;;;20.00;17.25;25.80;47.60;;;;;;111720;1238;45991;-61
2023/05/09 10:34:50;;;;;;;;;17.00;16.00;25.80;47.20;;;;;;111705;1239;55717;-61
2023/05/09 10:37:19;;;;;;;;;16.00;15.00;25.80;46.90;;;;;;111665;1240;53611;-61
2023/05/09 10:39:51;;;;;;;;;21.00;15.25;25.90;46.60;;;;;;111729;1235;50639;-61
2023/05/09 10:42:19;;;;;;;;;14.25;13.25;25.90;46.30;;;;;;111611;1237;49910;-62
2023/05/09 10:44:47;;;;;;;;;18.50;14.75;25.90;46.00;;;;;;111755;1235;45770;-61
2023/05/09 10:47:15;;;;;;;;;18.50;14.25;25.90;45.80;;;;;;111651;1238;56465;-61
2023/05/09 10:49:43;;;;;;;;;16.00;14.00;25.90;45.70;;;;;;111639;1243;53559;-62
2023/05/09 10:52:11;;;;;;;;;16.00;13.25;25.90;45.50;;;;;;111679;1240;49712;-63
2023/05/09 10:54:38;;;;;;;;;16.67;13.00;25.90;45.50;;;;;;111677;1238;49848;-61
2023/05/09 10:57:08;;;;;;;;;17.50;15.00;25.90;45.30;;;;;;111507;1237;46645;-61
2023/05/09 10:59:42;;;;;;;;;15.50;13.00;26.00;45.20;;;;;;111283;1237;56273;-66
2023/05/09 11:02:13;;;;;;;;;16.75;13.75;26.00;45.20;;;;;;111533;1237;54730;-62
2023/05/09 11:04:41;;;;;;;;;17.25;13.25;26.00;45.60;;;;;;111629;1240;51233;-61
2023/05/09 11:07:34;;;;;;;;;13.00;12.00;26.00;45.70;;;;;;111631;1241;49286;-61
2023/05/09 11:10:09;;;;;;;;;21.75;14.75;26.00;46.10;;;;;;111529;1239;45874;-61
2023/05/09 11:12:56;;;;;;;;;14.25;13.00;26.00;45.60;;;;;;111606;1242;55655;-61
2023/05/09 11:15:23;;;;;;;;;15.75;13.25;26.00;45.70;;;;;;111642;1237;54995;-61
2023/05/09 11:18:04;;;;;;;;;15.00;12.33;26.10;45.40;;;;;;111733;1237;49728;-62
2023/05/09 11:20:34;;;;;;;;;14.50;13.00;26.10;45.20;;;;;;111661;1237;48851;-61
2023/05/09 11:23:04;;;;;;;;;13.50;11.25;26.20;45.40;;;;;;111745;1239;45686;-69
2023/05/09 11:25:31;;;;;;;;;12.00;11.00;26.20;47.10;;;;;;112100;1237;55931;-72
2023/05/09 11:28:01;;;;;;;;;13.00;11.00;26.30;46.40;;;;;;111655;1237;54525;-71
2023/05/09 11:30:39;;;;;;;;;14.00;10.75;26.50;46.80;;;;;;111700;1239;49129;-70
2023/05/09 11:33:21;;;;;;;;;13.50;11.00;26.60;46.40;;;;;;111756;1235;49001;-68
2023/05/09 11:36:13;;;;;;;;;13.33;10.33;26.70;48.00;;;;;;111522;1238;45467;-69
2023/05/09 11:38:41;;;;;;;;;15.00;13.67;26.70;46.40;;;;;;111509;1235;56330;-68
2023/05/09 11:41:08;;;;;;;;;17.00;11.25;26.60;47.70;;;;;;111679;1237;54878;-67
2023/05/09 11:43:36;;;;;;;;;12.75;11.75;26.60;46.40;;;;;;111735;1237;49383;-67
2023/05/09 11:46:03;;;;;;;;;13.00;12.00;26.50;47.40;;;;;;111652;1238;49309;-67
2023/05/09 11:48:37;;;;;;;;;13.67;13.00;26.50;47.00;;;;;;111685;1236;45646;-68
2023/05/09 11:51:04;;;;;;;;;13.00;12.00;26.50;46.40;;;;;;111695;1240;56248;-70
2023/05/09 11:53:31;;;;;;;;;15.00;12.00;26.50;46.30;;;;;;111754;1235;55214;-69
2023/05/09 11:56:02;;;;;;;;;15.00;14.00;26.40;45.80;;;;;;111724;1237;49539;-73
2023/05/09 11:58:29;;;;;;;;;14.33;13.33;26.40;46.00;;;;;;111946;1235;49780;-71
2023/05/09 12:00:56;;;;;;;;;14.50;13.25;26.40;46.10;;;;;;111856;1240;45251;-72
2023/05/09 12:03:24;;;;;;;;;17.25;10.25;26.50;46.10;;;;;;112015;1235;55683;-69
2023/05/09 12:05:53;;;;;;;;;14.25;11.50;26.50;46.00;;;;;;111851;1235;54083;-70
2023/05/09 12:08:21;;;;;;;;;12.75;11.75;26.50;45.90;;;;;;111530;1238;49177;-70
2023/05/09 12:10:49;;;;;;;;;12.00;11.00;26.50;45.70;;;;;;111731;1241;49328;-71
2023/05/09 12:13:18;;;;;;;;;12.67;11.67;26.50;45.50;;;;;;111729;1238;45830;-70
2023/05/09 12:15:45;;;;;;;;;12.75;10.00;26.50;45.60;;;;;;111990;1238;55640;-71
2023/05/09 12:18:12;;;;;;;;;15.25;13.00;26.50;46.10;;;;;;111949;1236;54014;-72
2023/05/09 12:20:43;;;;;;;;;14.67;11.00;26.60;45.40;;;;;;111909;1237;49266;-72
2023/05/09 12:23:13;;;;;;;;;12.00;11.00;26.60;45.30;;;;;;107074;1235;3011219;-70
2023/05/09 12:25:53;;;;;;;;;11.33;10.33;26.60;45.30;;;;;;112242;1238;36470;-72
2023/05/09 12:28:24;;;;;;;;;11.67;10.67;26.60;45.40;;;;;;111730;1241;55500;-73
2023/05/09 12:30:52;;;;;;;;;14.50;11.00;26.60;44.80;;;;;;111719;1239;53503;-72
2023/05/09 12:33:20;;;;;;;;;12.00;11.00;26.60;45.40;;;;;;111725;1237;49124;-72